createdAt,value
2023-05-23T00:03:27.892Z,12.90
2023-05-23T00:08:31.325Z,11.53
2023-05-23T00:13:35.175Z,11.50
2023-05-23T00:18:40.664Z,11.33
2023-05-23T00:23:44.235Z,11.97
2023-05-23T00:28:47.833Z,11.77
2023-05-23T00:33:51.386Z,11.60
2023-05-23T00:38:54.783Z,11.20
2023-05-23T00:44:00.869Z,11.67
2023-05-23T00:49:04.956Z,11.37
2023-05-23T00:54:08.302Z,11.50
2023-05-23T00:59:12.995Z,11.37
2023-05-23T01:04:17.143Z,10.33
2023-05-23T01:09:21.997Z,10.60
2023-05-23T01:14:46.833Z,11.07
2023-05-23T01:20:26.154Z,10.83
2023-05-23T01:25:51.501Z,10.83
2023-05-23T01:30:58.109Z,11.13
2023-05-23T01:36:06.167Z,11.93
2023-05-23T01:41:09.673Z,11.10
2023-05-23T01:46:13.967Z,11.27
2023-05-23T01:51:17.601Z,11.87
2023-05-23T01:56:22.160Z,12.47
2023-05-23T02:01:25.801Z,12.10
2023-05-23T02:06:29.176Z,13.30
2023-05-23T02:11:32.450Z,15.00
2023-05-23T02:16:36.973Z,14.03
2023-05-23T02:21:40.187Z,11.67
2023-05-23T02:26:43.535Z,13.00
2023-05-23T02:31:46.941Z,13.50
2023-05-23T02:36:50.468Z,14.47
2023-05-23T02:41:53.706Z,14.27
2023-05-23T02:46:57.218Z,14.40
2023-05-23T02:52:00.483Z,13.33
2023-05-23T02:57:04.753Z,13.43
2023-05-23T03:02:08.132Z,14.43
2023-05-23T03:07:27.070Z,14.53
2023-05-23T03:12:31.258Z,14.90
2023-05-23T03:17:34.616Z,14.73
2023-05-23T03:22:38.252Z,14.30
2023-05-23T03:27:41.817Z,14.60
2023-05-23T03:32:45.387Z,15.97
2023-05-23T03:37:48.719Z,17.93
2023-05-23T03:43:05.219Z,19.03
2023-05-23T03:48:08.717Z,17.40
2023-05-23T03:53:12.034Z,18.07
2023-05-23T03:58:15.516Z,17.77
2023-05-23T04:03:19.278Z,19.63
2023-05-23T04:08:22.680Z,18.00
2023-05-23T04:13:26.883Z,17.43
2023-05-23T04:18:31.011Z,16.70
2023-05-23T04:23:34.236Z,18.53
2023-05-23T04:28:38.182Z,17.87
2023-05-23T04:33:41.753Z,16.10
2023-05-23T04:38:44.955Z,15.33
2023-05-23T04:43:48.178Z,14.50
2023-05-23T04:48:51.440Z,15.07
2023-05-23T04:53:54.705Z,14.55
2023-05-23T04:58:58.307Z,13.85
2023-05-23T05:04:01.590Z,12.82
2023-05-23T05:09:05.143Z,13.27
2023-05-23T05:14:08.407Z,13.35
2023-05-23T05:19:11.785Z,12.45
2023-05-23T05:24:16.200Z,13.23
2023-05-23T05:29:19.558Z,13.98
2023-05-23T05:34:23.300Z,13.23
2023-05-23T05:39:26.932Z,13.88
2023-05-23T05:44:30.203Z,12.73
2023-05-23T05:49:36.250Z,11.75
2023-05-23T05:54:39.761Z,10.95
2023-05-23T05:59:42.910Z,9.82
2023-05-23T06:04:46.300Z,8.70
2023-05-23T06:09:49.549Z,7.65
2023-05-23T06:14:52.827Z,7.03
2023-05-23T06:19:56.065Z,6.40
2023-05-23T06:24:59.467Z,6.65
2023-05-23T06:30:03.852Z,5.55
2023-05-23T06:35:07.645Z,5.80
2023-05-23T06:40:12.067Z,5.05
2023-05-23T06:45:16.764Z,5.10
2023-05-23T06:50:20.456Z,5.97
2023-05-23T06:55:24.687Z,5.80
2023-05-23T07:00:28.395Z,5.35
2023-05-23T07:05:33.677Z,4.45
2023-05-23T07:10:37.220Z,4.15
2023-05-23T07:15:40.312Z,4.40
2023-05-23T07:20:43.872Z,4.35
2023-05-23T07:26:01.107Z,3.70
2023-05-23T07:31:06.071Z,3.30
2023-05-23T07:36:09.976Z,3.80
2023-05-23T07:41:13.852Z,3.42
2023-05-23T07:46:17.544Z,3.17
2023-05-23T07:51:21.814Z,3.08
2023-05-23T07:56:25.020Z,3.30
2023-05-23T08:01:28.814Z,2.97
2023-05-23T08:06:32.393Z,3.35
2023-05-23T08:11:35.820Z,3.15
2023-05-23T08:16:39.549Z,3.42
2023-05-23T08:21:43.640Z,2.60
2023-05-23T08:26:47.596Z,3.20
2023-05-23T08:31:50.999Z,2.30
2023-05-23T08:36:54.212Z,3.13
2023-05-23T08:41:58.101Z,2.90
2023-05-23T08:47:08.175Z,3.15
2023-05-23T08:52:14.074Z,3.70
2023-05-23T08:57:18.355Z,2.70
2023-05-23T09:02:21.816Z,3.03
2023-05-23T09:07:25.663Z,3.13
2023-05-23T09:12:29.994Z,2.83
2023-05-23T09:17:33.957Z,3.28
2023-05-23T09:22:37.223Z,2.50
2023-05-23T09:27:41.592Z,3.13
2023-05-23T09:33:04.698Z,3.47
2023-05-23T09:38:09.127Z,2.97
2023-05-23T09:43:12.755Z,3.03
2023-05-23T09:48:16.315Z,2.80
2023-05-23T09:53:22.059Z,2.53
2023-05-23T09:58:26.593Z,3.20
2023-05-23T10:03:46.418Z,3.35
2023-05-23T10:09:05.198Z,2.75
2023-05-23T10:14:11.256Z,2.92
2023-05-23T10:19:39.130Z,2.72
2023-05-23T10:24:45.296Z,2.47
2023-05-23T10:29:49.093Z,2.90
2023-05-23T10:34:58.254Z,2.38
2023-05-23T10:40:06.630Z,3.20
2023-05-23T10:45:24.730Z,2.63
2023-05-23T10:50:34.980Z,3.00
2023-05-23T10:55:39.178Z,2.72
2023-05-23T11:00:55.485Z,3.35
2023-05-23T11:06:08.532Z,3.22
2023-05-23T11:11:11.839Z,2.55
2023-05-23T11:16:32.338Z,2.95
2023-05-23T11:21:37.636Z,3.00
2023-05-23T11:26:41.055Z,2.78
2023-05-23T11:31:44.426Z,2.70
2023-05-23T11:36:47.713Z,2.75
2023-05-23T11:42:04.182Z,2.70
2023-05-23T11:47:08.840Z,3.20
2023-05-23T11:52:12.158Z,3.20
2023-05-23T11:57:15.474Z,3.40
2023-05-23T12:02:18.699Z,2.75
2023-05-23T12:07:21.963Z,3.28
2023-05-23T12:12:25.482Z,3.22
2023-05-23T12:17:28.874Z,2.65
2023-05-23T12:22:32.655Z,3.78
2023-05-23T12:27:37.610Z,3.03
2023-05-23T12:32:46.352Z,2.78
2023-05-23T12:37:49.828Z,3.30
2023-05-23T12:42:57.774Z,2.60
2023-05-23T12:48:02.514Z,2.85
2023-05-23T12:53:05.925Z,2.80
2023-05-23T12:58:09.095Z,2.95
2023-05-23T13:03:12.755Z,3.20
2023-05-23T13:08:15.882Z,3.22
2023-05-23T13:13:19.327Z,2.80
2023-05-23T13:18:22.657Z,2.78
2023-05-23T13:23:26.588Z,2.88
2023-05-23T13:28:29.811Z,2.35
2023-05-23T13:33:33.218Z,3.00
2023-05-23T13:38:36.707Z,2.45
2023-05-23T13:43:40.107Z,3.20
2023-05-23T13:48:43.425Z,2.92
2023-05-23T13:53:46.946Z,3.00
2023-05-23T13:58:50.355Z,2.97
2023-05-23T14:03:53.825Z,3.40
2023-05-23T14:08:57.489Z,3.90
2023-05-23T14:14:01.065Z,3.05
2023-05-23T14:19:04.942Z,3.30
2023-05-23T14:24:08.487Z,2.72
2023-05-23T14:29:11.670Z,2.50
2023-05-23T14:34:14.949Z,2.97
2023-05-23T14:39:18.519Z,3.15
2023-05-23T14:44:21.596Z,2.83
2023-05-23T14:49:24.800Z,2.88
2023-05-23T14:54:27.992Z,2.60
2023-05-23T14:59:32.395Z,3.08
2023-05-23T15:04:38.217Z,3.35
2023-05-23T15:09:41.938Z,3.72
2023-05-23T15:14:45.274Z,3.00
2023-05-23T15:19:48.448Z,2.95
2023-05-23T15:24:51.717Z,2.90
2023-05-23T15:29:54.992Z,2.55
2023-05-23T15:34:58.291Z,2.67
2023-05-23T15:40:02.782Z,3.20
2023-05-23T15:45:06.725Z,3.22
2023-05-23T15:50:12.879Z,2.85
2023-05-23T15:55:17.853Z,2.88
2023-05-23T16:00:21.858Z,2.40
2023-05-23T16:05:26.166Z,2.85
2023-05-23T16:10:29.457Z,3.30
2023-05-23T16:15:32.950Z,3.13
2023-05-23T16:20:36.401Z,3.97
2023-05-23T16:25:39.914Z,3.00
2023-05-23T16:30:43.220Z,2.90
2023-05-23T16:35:46.519Z,2.63
2023-05-23T16:40:49.792Z,3.35
2023-05-23T16:45:53.128Z,3.90
2023-05-23T16:50:57.846Z,2.50
2023-05-23T16:56:01.487Z,3.00
2023-05-23T17:01:05.392Z,4.60
2023-05-23T17:06:08.629Z,4.13
2023-05-23T17:11:11.753Z,3.00
2023-05-23T17:16:20.454Z,3.60
2023-05-23T17:21:23.913Z,4.25
2023-05-23T17:26:28.063Z,4.32
2023-05-23T17:31:31.867Z,3.97
2023-05-23T17:36:35.861Z,4.53
2023-05-23T17:41:39.161Z,3.60
2023-05-23T17:46:42.633Z,4.82
2023-05-23T17:51:46.778Z,5.55
2023-05-23T17:56:50.156Z,3.72
2023-05-23T18:01:53.439Z,3.72
2023-05-23T18:06:56.654Z,3.63
2023-05-23T18:12:00.141Z,3.85
2023-05-23T18:17:04.004Z,4.10
2023-05-23T18:22:07.270Z,3.58
2023-05-23T18:27:10.552Z,4.85
2023-05-23T18:32:14.954Z,4.90
2023-05-23T18:37:18.565Z,5.20
2023-05-23T18:42:22.546Z,4.85
2023-05-23T18:47:25.853Z,4.70
2023-05-23T18:52:31.071Z,4.50
2023-05-23T18:57:34.572Z,6.03
2023-05-23T19:02:39.957Z,5.28
2023-05-23T19:07:44.434Z,5.20
2023-05-23T19:12:48.822Z,5.85
2023-05-23T19:17:52.341Z,5.63
2023-05-23T19:22:56.125Z,5.40
2023-05-23T19:27:59.361Z,5.70
2023-05-23T19:33:03.006Z,5.90
2023-05-23T19:38:06.552Z,6.05
2023-05-23T19:43:09.914Z,5.55
2023-05-23T19:48:13.338Z,6.20
2023-05-23T19:53:17.393Z,7.68
2023-05-23T19:58:20.719Z,7.25
2023-05-23T20:03:24.811Z,5.85
2023-05-23T20:08:28.235Z,5.95
2023-05-23T20:13:33.141Z,7.00
2023-05-23T20:18:36.811Z,9.00
2023-05-23T20:23:43.803Z,9.88
2023-05-23T20:28:47.035Z,8.77
2023-05-23T20:33:50.428Z,9.07
2023-05-23T20:38:54.144Z,9.00
2023-05-23T20:43:57.461Z,7.43
2023-05-23T20:49:01.693Z,8.77
2023-05-23T20:54:05.806Z,8.80
2023-05-23T20:59:12.638Z,9.82
2023-05-23T21:04:18.125Z,8.57
2023-05-23T21:09:22.280Z,9.50
2023-05-23T21:14:25.450Z,8.88
2023-05-23T21:19:28.748Z,8.60
2023-05-23T21:24:31.893Z,9.18
2023-05-23T21:29:36.016Z,9.20
2023-05-23T21:34:39.400Z,10.68
2023-05-23T21:39:51.161Z,10.57
2023-05-23T21:44:55.902Z,10.57
2023-05-23T21:49:59.609Z,10.43
2023-05-23T21:55:03.083Z,11.57
2023-05-23T22:00:12.634Z,10.85
2023-05-23T22:05:16.239Z,11.20
2023-05-23T22:10:19.776Z,11.73
2023-05-23T22:15:22.914Z,10.93
2023-05-23T22:20:26.498Z,10.63
2023-05-23T22:25:32.827Z,11.05
2023-05-23T22:30:36.234Z,9.65
2023-05-23T22:35:45.888Z,11.07
2023-05-23T22:40:49.077Z,9.88
2023-05-23T22:45:52.909Z,11.00
2023-05-23T22:50:57.457Z,10.18
2023-05-23T22:56:00.616Z,10.27
2023-05-23T23:01:03.900Z,10.27
2023-05-23T23:06:08.003Z,11.05
2023-05-23T23:11:11.227Z,11.18
2023-05-23T23:16:14.455Z,11.88
2023-05-23T23:21:17.738Z,12.25
2023-05-23T23:26:22.026Z,11.75
2023-05-23T23:31:25.410Z,13.32
2023-05-23T23:36:28.678Z,12.13
2023-05-23T23:41:31.814Z,12.30
2023-05-23T23:46:35.096Z,12.82
2023-05-23T23:51:38.679Z,12.57
2023-05-23T23:56:42.211Z,12.13
